Time;durP1;ratioP1;P1;durP2;ratioP2;P2;SDS_P1;SDS_P2;PMS_P1;PMS_P2;Temp;Humidity;BMP_temperature;BMP_pressure;BME280_temperature;BME280_humidity;BME280_pressure;Samples;Min_cycle;Max_cycle;Signal;HPM_P1;HPM_P2
2021/08/30 00:14:39;;;;;;;0.38;0.38;;;;;;;20.14;65.76;102225.56;5410070;23;20034;-84
2021/08/30 00:18:07;;;;;;;0.73;0.73;;;;;;;20.07;65.73;102222.19;4973989;28;20023;-86
2021/08/30 00:32:27;;;;;;;3.03;1.35;;;;;;;20.10;65.62;102208.66;5377604;23;20033;-88
2021/08/30 00:42:54;;;;;;;1.30;1.27;;;;;;;19.99;65.88;102225.19;5803821;23;20071;-86
2021/08/30 00:45:21;;;;;;;0.20;0.20;;;;;;;19.94;65.95;102226.28;4936770;29;20487;-86
2021/08/30 00:47:47;;;;;;;0.20;0.20;;;;;;;19.87;66.14;102226.50;4938861;29;20031;-85
2021/08/30 00:50:16;;;;;;;0.52;0.52;;;;;;;19.88;66.00;102217.50;4938800;29;20034;-85
2021/08/30 00:52:43;;;;;;;0.68;0.25;;;;;;;19.95;65.97;102225.34;4937378;29;20595;-87
2021/08/30 00:55:10;;;;;;;0.10;0.10;;;;;;;19.92;65.94;102226.34;4917683;29;20056;-86
2021/08/30 00:57:37;;;;;;;0.30;0.30;;;;;;;19.95;65.90;102220.88;4920695;29;20031;-87
2021/08/30 01:00:06;;;;;;;0.20;0.20;;;;;;;19.97;65.75;102224.34;4918820;29;20055;-88
2021/08/30 01:02:33;;;;;;;0.10;0.10;;;;;;;19.99;65.80;102227.88;4918396;29;20035;-88
2021/08/30 01:05:01;;;;;;;0.10;0.10;;;;;;;19.98;65.79;102225.25;4918636;29;20036;-88
2021/08/30 01:07:52;;;;;;;0.25;0.25;;;;;;;19.92;65.79;102223.66;4919617;29;20035;-88
2021/08/30 01:13:13;;;;;;;0.10;0.10;;;;;;;19.93;65.92;102230.81;5133296;27;20407;-87
2021/08/30 01:15:44;;;;;;;0.10;0.10;;;;;;;19.97;65.79;102224.34;5119512;27;20494;-87
2021/08/30 01:18:19;;;;;;;0.10;0.10;;;;;;;19.99;65.86;102227.88;5119240;27;20081;-88
2021/08/30 01:21:13;;;;;;;0.32;0.32;;;;;;;20.00;65.85;102235.03;5120674;27;20138;-87
2021/08/30 01:23:44;;;;;;;1.75;0.52;;;;;;;20.01;65.71;102230.50;5119332;27;20028;-87
2021/08/30 01:26:13;;;;;;;0.30;0.30;;;;;;;19.90;65.98;102232.72;5119630;28;20028;-88
2021/08/30 01:28:53;;;;;;;0.20;0.20;;;;;;;19.96;65.97;102233.38;5119947;28;20173;-87
2021/08/30 01:31:29;;;;;;;0.10;0.10;;;;;;;19.98;65.79;102234.19;5117559;28;20431;-87
2021/08/30 01:33:55;;;;;;;0.17;0.17;;;;;;;19.87;65.98;102226.50;5119778;27;20032;-87
2021/08/30 01:36:22;;;;;;;0.25;0.25;;;;;;;19.93;65.92;102232.63;5118650;27;20031;-87
2021/08/30 01:38:49;;;;;;;0.20;0.20;;;;;;;19.88;65.97;102238.16;5119619;28;20027;-87
2021/08/30 01:41:19;;;;;;;0.10;0.10;;;;;;;19.93;65.95;102243.38;5118380;27;20039;-87
2021/08/30 01:43:47;;;;;;;0.10;0.10;;;;;;;19.80;66.06;102241.13;5117950;27;20425;-88
2021/08/30 01:46:16;;;;;;;0.38;0.38;;;;;;;19.82;66.08;102243.75;5118085;27;20072;-88
2021/08/30 01:48:49;;;;;;;0.10;0.10;;;;;;;19.76;66.25;102246.66;5119204;28;20035;-87
2021/08/30 01:51:19;;;;;;;0.65;0.65;;;;;;;19.84;66.16;102245.47;5118289;28;20060;-87
2021/08/30 01:53:48;;;;;;;0.60;0.60;;;;;;;19.91;65.95;102248.78;5117850;27;20060;-87
2021/08/30 01:56:18;;;;;;;0.47;0.47;;;;;;;19.89;65.87;102248.00;5121039;28;20025;-87
2021/08/30 02:01:34;;;;;;;0.20;0.20;;;;;;;19.96;65.90;102245.94;5117357;27;20047;-88
2021/08/30 02:04:01;;;;;;;0.10;0.10;;;;;;;19.96;65.77;102246.84;5119790;27;20484;-87
2021/08/30 02:06:27;;;;;;;0.10;0.10;;;;;;;20.00;65.84;102256.53;5118613;27;20016;-88
2021/08/30 02:08:56;;;;;;;0.57;0.57;;;;;;;20.01;65.88;102252.03;5119185;27;20118;-88
2021/08/30 02:11:29;;;;;;;0.93;0.55;;;;;;;20.01;65.78;102247.53;5118408;27;20039;-87
2021/08/30 02:35:21;;;;;;;1.35;0.40;;;;;;;19.90;66.31;102227.34;6127573;22;20027;-83
2021/08/30 02:52:21;;;;;;;0.30;0.30;;;;;;;19.84;66.63;102229.31;5305830;22;20032;-84
2021/08/30 03:11:35;;;;;;;0.10;0.10;;;;;;;19.55;67.09;102208.84;5221020;22;20044;-82
2021/08/30 03:17:38;;;;;;;0.47;0.47;;;;;;;19.61;66.50;102203.25;6109051;22;20006;-84
2021/08/30 03:21:30;;;;;;;0.30;0.30;;;;;;;19.51;66.80;102193.75;5854636;22;20891;-94
2021/08/30 03:30:20;;;;;;;0.50;0.50;;;;;;;19.27;66.95;102204.44;5651199;22;20011;-81
2021/08/30 04:12:09;;;;;;;1.00;0.80;;;;;;;18.73;68.08;102201.75;5303231;22;20065;-96
2021/08/30 04:14:57;;;;;;;0.80;0.80;;;;;;;18.72;68.02;102201.81;5058111;28;20025;-96
2021/08/30 04:17:43;;;;;;;0.65;0.65;;;;;;;18.75;67.79;102207.06;5112110;22;20050;-96
2021/08/30 04:21:15;;;;;;;0.10;0.10;;;;;;;18.83;67.50;102207.69;5115635;28;20095;-92
2021/08/30 04:24:56;;;;;;;0.30;0.30;;;;;;;18.80;67.92;102212.28;5103711;28;20032;-93
2021/08/30 04:28:33;;;;;;;1.05;1.05;;;;;;;18.88;67.74;102212.91;5549203;22;20056;-89
2021/08/30 04:44:27;;;;;;;0.52;0.52;;;;;;;18.99;67.88;102221.53;5721976;22;20024;-96
2021/08/30 04:47:39;;;;;;;0.68;0.68;;;;;;;19.02;67.73;102226.78;5097639;28;20013;-96
2021/08/30 04:50:28;;;;;;;1.10;1.10;;;;;;;18.88;68.20;102221.84;5087029;28;20101;-96
2021/08/30 04:56:13;;;;;;;0.40;0.40;;;;;;;19.14;67.72;102227.28;5056628;28;20057;-96
2021/08/30 05:01:41;;;;;;;0.70;0.70;;;;;;;19.04;67.98;102227.63;5078421;22;20045;-96
2021/08/30 05:04:07;;;;;;;1.23;1.17;;;;;;;19.05;68.00;102223.13;5070428;28;20052;-96
2021/08/30 05:06:40;;;;;;;0.88;0.88;;;;;;;19.22;67.64;102228.78;5050194;28;20032;-96
2021/08/30 05:09:08;;;;;;;0.38;0.38;;;;;;;19.24;67.58;102236.81;5088340;28;20028;-96
2021/08/30 05:11:37;;;;;;;0.70;0.70;;;;;;;19.23;67.61;102232.38;5093830;28;20052;-96
2021/08/30 05:19:38;;;;;;;0.10;0.10;;;;;;;19.35;67.41;102240.00;5077233;28;20025;-96
2021/08/30 05:22:32;;;;;;;0.88;0.82;;;;;;;19.48;67.08;102243.13;5173991;22;20220;-96
2021/08/30 05:25:03;;;;;;;0.57;0.57;;;;;;;19.38;67.55;102247.94;5096811;28;20073;-88
2021/08/30 05:27:51;;;;;;;0.40;0.40;;;;;;;19.44;67.42;102245.97;5093835;28;20048;-90
2021/08/30 05:33:09;;;;;;;0.60;0.60;;;;;;;19.39;67.40;102248.84;5083167;28;20492;-84
2021/08/30 05:36:29;;;;;;;8.80;1.02;;;;;;;19.64;66.90;102256.03;5074090;28;20041;-89
2021/08/30 05:38:57;;;;;;;0.10;0.10;;;;;;;19.54;67.16;102266.25;5068415;28;20021;-91
2021/08/30 05:41:31;;;;;;;0.38;0.38;;;;;;;19.59;67.08;102266.97;5074698;28;20045;-89
2021/08/30 05:44:06;;;;;;;0.20;0.20;;;;;;;19.64;67.09;102258.72;5077638;28;20116;-86
2021/08/30 05:46:45;;;;;;;0.45;0.45;;;;;;;19.67;67.01;102264.84;5065291;28;20041;-85
2021/08/30 05:49:21;;;;;;;0.15;0.15;;;;;;;19.62;66.72;102261.47;5119464;22;20037;-87
2021/08/30 05:52:31;;;;;;;0.10;0.10;;;;;;;19.63;66.66;102263.22;5297545;22;20045;-85
2021/08/30 05:55:17;;;;;;;0.93;0.88;;;;;;;19.62;66.69;102258.78;5056991;28;20037;-86
2021/08/30 05:57:43;;;;;;;0.38;0.38;;;;;;;19.70;67.04;102259.38;5062035;28;20029;-91
2021/08/30 06:00:11;;;;;;;0.25;0.25;;;;;;;19.69;66.99;102263.00;5063491;28;20040;-96
2021/08/30 06:02:37;;;;;;;0.43;0.43;;;;;;;19.78;66.77;102260.94;5043203;28;20033;-92
2021/08/30 06:05:04;;;;;;;0.43;0.43;;;;;;;19.80;66.75;102257.25;5058010;28;20032;-95
2021/08/30 06:07:30;;;;;;;0.57;0.57;;;;;;;19.85;66.62;102249.91;5041985;28;20026;-89
2021/08/30 06:09:57;;;;;;;0.70;0.70;;;;;;;19.93;66.32;102260.38;5053468;28;20360;-91
2021/08/30 06:12:23;;;;;;;0.47;0.47;;;;;;;19.93;66.25;102259.53;5049652;28;20173;-95
2021/08/30 06:14:54;;;;;;;0.90;0.90;;;;;;;20.02;66.05;102265.41;5035172;28;20026;-92
2021/08/30 06:17:20;;;;;;;0.80;0.35;;;;;;;20.10;65.77;102266.94;5052598;28;20025;-94
2021/08/30 06:19:46;;;;;;;5.32;0.75;;;;;;;19.98;66.06;102265.59;5055638;28;20060;-92
2021/08/30 06:22:12;;;;;;;0.85;0.85;;;;;;;20.09;65.75;102266.06;5054949;28;20088;-92
2021/08/30 06:24:40;;;;;;;0.20;0.20;;;;;;;20.13;65.66;102261.47;5054683;28;20120;-91
2021/08/30 06:27:07;;;;;;;0.25;0.25;;;;;;;20.11;65.66;102268.69;5054537;28;20033;-92
2021/08/30 06:29:33;;;;;;;0.98;0.70;;;;;;;20.15;65.91;102265.84;5055610;28;20037;-92
2021/08/30 06:32:00;;;;;;;0.10;0.10;;;;;;;20.13;65.41;102261.47;5055360;28;20410;-90
2021/08/30 06:34:26;;;;;;;0.85;0.85;;;;;;;20.19;65.41;102259.41;5055629;28;20439;-96
2021/08/30 06:36:53;;;;;;;2.67;2.47;;;;;;;20.18;65.50;102257.66;5056028;28;20410;-94
2021/08/30 06:39:19;;;;;;;0.60;0.60;;;;;;;20.24;65.75;102263.72;5056354;28;20037;-94
2021/08/30 06:41:45;;;;;;;0.22;0.22;;;;;;;20.24;65.91;102274.50;5057050;28;20025;-91
2021/08/30 06:44:11;;;;;;;0.30;0.30;;;;;;;20.19;65.65;102258.53;5053604;28;20035;-90
2021/08/30 06:46:38;;;;;;;0.68;0.68;;;;;;;20.25;65.61;102263.69;5055533;28;20025;-89
2021/08/30 06:49:04;;;;;;;0.60;0.60;;;;;;;20.27;65.70;102259.09;5055345;28;20021;-92
2021/08/30 06:51:30;;;;;;;0.75;0.75;;;;;;;20.33;65.73;102258.88;5054756;28;20037;-91
2021/08/30 06:53:56;;;;;;;0.30;0.30;;;;;;;20.33;65.74;102258.88;5055517;28;20029;-93
2021/08/30 06:56:23;;;;;;;0.70;0.70;;;;;;;20.42;65.51;102256.78;5055677;28;20175;-89
2021/08/30 06:58:49;;;;;;;0.40;0.40;;;;;;;20.38;65.25;102260.53;5056201;28;20037;-87
2021/08/30 07:01:18;;;;;;;1.40;1.30;;;;;;;20.47;65.61;102255.66;5054955;28;20037;-92
2021/08/30 07:03:44;;;;;;;0.80;0.80;;;;;;;20.55;65.37;102255.34;5044963;28;20033;-95
2021/08/30 07:06:11;;;;;;;0.30;0.30;;;;;;;20.62;65.34;102261.38;5054497;28;20053;-92
2021/08/30 07:08:37;;;;;;;0.35;0.35;;;;;;;20.70;65.35;102267.34;5054519;28;20025;-93
2021/08/30 07:11:03;;;;;;;0.28;0.28;;;;;;;20.81;64.88;102269.59;5036914;28;20139;-92
2021/08/30 07:13:29;;;;;;;0.30;0.30;;;;;;;20.81;64.54;102262.41;5053891;28;20029;-90
2021/08/30 07:15:55;;;;;;;0.25;0.25;;;;;;;20.99;64.51;102263.47;5053847;28;20033;-85
2021/08/30 07:18:22;;;;;;;0.47;0.47;;;;;;;20.83;64.80;102260.50;5053259;28;20472;-87
2021/08/30 07:20:51;;;;;;;0.52;0.52;;;;;;;20.94;64.15;102259.22;5053384;28;20195;-91
2021/08/30 07:23:18;;;;;;;0.75;0.75;;;;;;;20.98;64.88;102261.69;5055612;28;20040;-87
2021/08/30 07:25:44;;;;;;;0.75;0.75;;;;;;;20.95;64.56;102260.97;5055098;28;20111;-90
2021/08/30 07:28:10;;;;;;;0.20;0.20;;;;;;;21.12;64.40;102265.66;5055079;28;20033;-93
2021/08/30 07:30:37;;;;;;;0.20;0.20;;;;;;;21.18;64.07;102257.31;5051762;28;20033;-89
2021/08/30 07:33:06;;;;;;;0.45;0.45;;;;;;;21.11;63.83;102271.97;5052004;28;20033;-91
2021/08/30 07:35:32;;;;;;;3.70;2.05;;;;;;;21.26;63.97;102265.94;5052209;28;20102;-90
2021/08/30 07:37:59;;;;;;;0.40;0.40;;;;;;;21.17;64.13;102269.03;5053046;28;20037;-93
2021/08/30 07:40:25;;;;;;;0.55;0.55;;;;;;;21.25;64.14;102276.81;5051478;28;20119;-93
2021/08/30 07:42:51;;;;;;;0.88;0.68;;;;;;;21.17;64.01;102277.09;5052185;28;20033;-95
2021/08/30 07:45:17;;;;;;;0.50;0.50;;;;;;;21.22;64.02;102277.81;5053736;28;20040;-87
2021/08/30 07:47:43;;;;;;;0.88;0.45;;;;;;;21.11;64.13;102277.38;5053192;28;20029;-91
2021/08/30 07:50:11;;;;;;;0.10;0.10;;;;;;;21.17;63.98;102277.09;5053698;28;20495;-92
2021/08/30 07:52:37;;;;;;;0.30;0.30;;;;;;;21.22;63.95;102293.09;5053430;28;20033;-92
2021/08/30 07:55:05;;;;;;;0.60;0.60;;;;;;;21.13;64.05;102280.88;5064287;28;20032;-90
2021/08/30 07:57:31;;;;;;;0.10;0.10;;;;;;;21.25;63.69;102280.38;5062539;28;20510;-92
2021/08/30 07:59:58;;;;;;;0.10;0.10;;;;;;;21.32;63.83;102289.06;5053671;28;20029;-86
2021/08/30 08:02:24;;;;;;;0.60;0.60;;;;;;;21.42;63.51;102286.84;5053617;28;20033;-94
2021/08/30 08:04:50;;;;;;;0.25;0.25;;;;;;;21.41;63.38;102291.38;5053225;28;20029;-88
2021/08/30 08:07:16;;;;;;;0.25;0.25;;;;;;;21.47;63.27;102301.00;5052868;28;20488;-86
2021/08/30 08:09:42;;;;;;;0.20;0.20;;;;;;;21.56;63.27;102307.84;5052948;28;20040;-90
2021/08/30 08:12:08;;;;;;;1.80;0.57;;;;;;;21.67;62.93;102307.41;5052951;28;20037;-87
2021/08/30 08:14:35;;;;;;;0.22;0.22;;;;;;;;;;5052896;28;20065;-88
2021/08/30 08:17:01;;;;;;;0.10;0.10;;;;;;;21.75;63.20;102305.25;5052553;28;20455;-87
2021/08/30 08:19:27;;;;;;;0.22;0.22;;;;;;;21.81;62.93;102299.59;5053128;28;20032;-91
2021/08/30 08:21:55;;;;;;;0.10;0.10;;;;;;;21.74;62.52;102298.09;5051852;28;20039;-86
2021/08/30 08:24:24;;;;;;;0.45;0.45;;;;;;;21.87;62.32;102296.63;5052707;28;20045;-85
2021/08/30 08:26:50;;;;;;;0.68;0.68;;;;;;;21.91;62.72;102298.22;5052600;28;20075;-88
2021/08/30 08:29:17;;;;;;;0.50;0.50;;;;;;;21.94;62.61;102300.81;5053844;28;20033;-86
2021/08/30 08:31:43;;;;;;;0.30;0.30;;;;;;;22.00;62.54;102299.63;5054163;28;20124;-86
2021/08/30 08:34:09;;;;;;;0.55;0.55;;;;;;;22.00;62.68;102299.63;5053045;28;20049;-92
2021/08/30 08:36:35;;;;;;;0.10;0.10;;;;;;;22.05;62.53;102292.19;5052727;28;20447;-86
2021/08/30 08:39:10;;;;;;;0.30;0.30;;;;;;;21.96;62.17;102292.63;5059659;28;20025;-85
2021/08/30 08:41:38;;;;;;;0.93;0.93;;;;;;;22.04;61.85;102292.28;5057734;28;20384;-96
2021/08/30 08:44:06;;;;;;;1.38;0.82;;;;;;;21.96;61.78;102295.34;5060790;28;20025;-96
2021/08/30 08:46:35;;;;;;;0.45;0.45;;;;;;;21.92;61.98;102304.50;5055101;28;20024;-96
2021/08/30 08:49:02;;;;;;;0.10;0.10;;;;;;;21.90;61.83;102301.88;5055407;28;20059;-96
2021/08/30 08:51:32;;;;;;;0.52;0.52;;;;;;;22.05;62.23;102297.59;5060996;28;20059;-95
2021/08/30 08:56:34;;;;;;;0.65;0.65;;;;;;;22.03;62.07;102288.72;5102598;22;20535;-96
2021/08/30 08:59:00;;;;;;;1.25;1.15;;;;;;;22.06;61.94;102303.88;5055199;28;20035;-96
2021/08/30 09:01:30;;;;;;;2.45;0.77;;;;;;;22.01;61.98;102289.69;5055524;28;20490;-94
2021/08/30 09:03:57;;;;;;;0.10;0.10;;;;;;;21.90;61.99;102293.78;5057724;28;20119;-96
2021/08/30 09:06:42;;;;;;;0.40;0.40;;;;;;;21.95;62.31;102297.13;5059601;28;20029;-93
2021/08/30 09:09:12;;;;;;;0.45;0.45;;;;;;;21.83;62.59;102291.41;5023088;28;20041;-92
2021/08/30 09:11:43;;;;;;;0.25;0.25;;;;;;;21.94;62.33;102290.00;5045845;28;20436;-87
2021/08/30 09:14:26;;;;;;;0.98;0.47;;;;;;;22.02;62.27;102286.06;5044165;28;20042;-87
2021/08/30 09:17:09;;;;;;;0.30;0.30;;;;;;;22.06;62.35;102285.00;5037674;28;20028;-94
2021/08/30 09:19:59;;;;;;;0.73;0.73;;;;;;;22.05;62.29;102292.19;5036353;28;20099;-86
2021/08/30 09:22:39;;;;;;;0.30;0.30;;;;;;;22.01;62.26;102290.59;5031895;28;20071;-86
2021/08/30 09:25:08;;;;;;;0.20;0.20;;;;;;;22.00;62.41;102294.22;5038916;28;20029;-86
2021/08/30 09:28:19;;;;;;;0.20;0.20;;;;;;;22.19;62.23;102288.84;5048722;28;20033;-90
2021/08/30 09:30:56;;;;;;;0.30;0.30;;;;;;;22.14;62.31;102288.19;5057335;28;20030;-87
2021/08/30 09:33:25;;;;;;;0.10;0.10;;;;;;;22.20;62.15;102290.63;5056089;28;20100;-93
2021/08/30 09:36:01;;;;;;;1.25;1.15;;;;;;;22.36;61.87;102296.19;5043525;28;20029;-96
2021/08/30 09:38:35;;;;;;;0.73;0.73;;;;;;;22.42;61.74;102295.06;5039338;28;20059;-94
2021/08/30 09:41:07;;;;;;;0.20;0.20;;;;;;;22.44;61.31;102295.84;5044583;28;20104;-96
2021/08/30 09:43:33;;;;;;;1.40;1.30;;;;;;;22.52;61.42;102290.06;5048659;28;20037;-96
2021/08/30 09:46:02;;;;;;;0.73;0.73;;;;;;;22.69;61.33;102289.28;5040831;28;20121;-91
2021/08/30 09:48:28;;;;;;;0.10;0.10;;;;;;;22.68;60.95;102290.22;5033400;28;20029;-91
2021/08/30 09:51:00;;;;;;;1.60;1.50;;;;;;;22.91;60.66;102287.28;5038959;28;20633;-96
2021/08/30 09:53:26;;;;;;;;;;;;;;;23.22;60.05;102291.19;5040776;28;20021;-96
2021/08/30 09:55:53;;;;;;;1.90;0.75;;;;;;;23.22;60.21;102285.78;5042603;28;19963;-96
2021/08/30 09:58:20;;;;;;;0.93;0.93;;;;;;;23.22;59.70;102288.47;5034025;28;20034;-96
2021/08/30 10:00:48;;;;;;;0.20;0.20;;;;;;;23.37;60.34;102289.53;5046481;28;20013;-95
2021/08/30 10:03:17;;;;;;;0.30;0.30;;;;;;;23.43;60.04;102285.66;5051730;28;20041;-96
2021/08/30 10:05:44;;;;;;;0.68;0.68;;;;;;;23.49;59.86;102285.31;5346342;22;20124;-95
2021/08/30 10:08:11;;;;;;;0.80;0.80;;;;;;;23.52;60.06;102293.25;5077615;28;20056;-96
2021/08/30 10:10:37;;;;;;;0.20;0.20;;;;;;;23.51;58.98;102285.25;5074004;28;20032;-96
2021/08/30 10:13:03;;;;;;;0.10;0.10;;;;;;;23.55;59.42;102282.31;5076569;28;20431;-95
2021/08/30 10:15:30;;;;;;;0.10;0.10;;;;;;;23.71;59.88;102287.78;5056545;28;20550;-96
2021/08/30 10:17:57;;;;;;;0.40;0.40;;;;;;;23.79;58.78;102283.78;5056134;28;20021;-96
2021/08/30 10:20:28;;;;;;;0.20;0.20;;;;;;;23.95;58.54;102286.56;5060359;28;20032;-96
2021/08/30 10:23:00;;;;;;;2.22;1.52;;;;;;;24.10;58.01;102280.34;5055395;28;20399;-96
2021/08/30 10:25:26;;;;;;;0.40;0.40;;;;;;;24.17;58.78;102284.44;5055250;28;20040;-96
2021/08/30 10:27:58;;;;;;;0.20;0.20;;;;;;;24.27;58.65;102273.13;5055788;28;20067;-96
2021/08/30 10:30:25;;;;;;;0.55;0.55;;;;;;;24.31;56.22;102280.09;5056634;28;20073;-96
2021/08/30 10:39:10;;;;;;;2.42;0.88;;;;;;;24.54;55.84;102290.53;5117782;22;20048;-96
2021/08/30 10:41:46;;;;;;;0.47;0.47;;;;;;;24.57;57.14;102288.63;5079381;28;20032;-96
2021/08/30 10:44:27;;;;;;;0.60;0.60;;;;;;;24.73;55.83;102278.66;5064131;28;20475;-96
2021/08/30 10:57:04;;;;;;;0.32;0.32;;;;;;;25.17;55.32;102269.78;5026174;28;20096;-92
2021/08/30 10:59:31;;;;;;;0.40;0.40;;;;;;;25.30;55.16;102271.78;5014444;28;20496;-84
2021/08/30 11:02:03;;;;;;;0.10;0.10;;;;;;;25.23;54.76;102270.38;5013633;28;20113;-87
2021/08/30 11:04:38;;;;;;;1.65;1.15;;;;;;;25.21;54.11;102270.47;5013866;28;20111;-87
2021/08/30 11:07:07;;;;;;;0.20;0.20;;;;;;;25.10;53.85;102267.53;5014697;28;20046;-87
2021/08/30 11:09:34;;;;;;;0.40;0.40;;;;;;;25.06;53.50;102272.25;5013980;28;20410;-87
2021/08/30 11:12:10;;;;;;;0.25;0.25;;;;;;;25.09;53.78;102265.78;5013683;28;20033;-86
2021/08/30 11:14:37;;;;;;;0.90;0.40;;;;;;;24.74;52.92;102261.44;5014426;28;20531;-88
2021/08/30 11:17:04;;;;;;;0.55;0.55;;;;;;;24.80;53.61;102261.09;5014013;28;20058;-86
2021/08/30 11:19:30;;;;;;;0.85;0.75;;;;;;;24.79;53.86;102256.63;5013860;28;20026;-90
2021/08/30 11:21:58;;;;;;;0.30;0.30;;;;;;;24.77;53.82;102266.69;5012947;28;20413;-89
2021/08/30 11:24:36;;;;;;;2.67;1.45;;;;;;;25.13;54.04;102261.91;5012857;28;20029;-87
2021/08/30 11:27:26;;;;;;;0.55;0.55;;;;;;;25.24;53.09;102258.56;5010366;28;20469;-87
2021/08/30 11:29:56;;;;;;;0.00;0.00;;;;;;;25.24;53.42;102258.56;5008547;28;20045;-89
2021/08/30 11:32:24;;;;;;;0.40;0.40;;;;;;;25.11;53.92;102256.59;5012847;28;20030;-85
2021/08/30 11:34:51;;;;;;;0.35;0.35;;;;;;;25.10;54.21;102262.97;5012759;28;20026;-91
2021/08/30 11:37:22;;;;;;;0.40;0.40;;;;;;;25.10;54.20;102264.81;5013209;28;20118;-87
2021/08/30 11:39:51;;;;;;;0.40;0.40;;;;;;;25.01;54.04;102268.94;5013427;28;20501;-88
2021/08/30 11:42:20;;;;;;;5.68;0.90;;;;;;;24.75;53.35;102263.22;5013567;28;20116;-87
2021/08/30 11:44:47;;;;;;;0.30;0.30;;;;;;;24.74;54.12;102269.59;5013637;28;20034;-88
2021/08/30 11:47:15;;;;;;;1.45;0.75;;;;;;;24.57;53.58;102264.22;5013610;28;20088;-87
2021/08/30 11:52:23;;;;;;;1.00;1.00;;;;;;;24.67;54.11;102271.78;5069474;28;20387;-85
2021/08/30 12:00:29;;;;;;;0.10;0.10;;;;;;;24.65;53.79;102261.97;5089324;27;20404;-85
2021/08/30 12:02:58;;;;;;;0.10;0.10;;;;;;;24.64;53.75;102268.34;5069522;28;20039;-84
2021/08/30 12:05:27;;;;;;;0.17;0.17;;;;;;;24.58;52.67;102256.00;5049356;28;20171;-84
2021/08/30 12:07:55;;;;;;;1.02;0.30;;;;;;;24.49;53.83;102273.66;5049119;28;20484;-86
2021/08/30 12:10:22;;;;;;;0.10;0.10;;;;;;;24.59;54.04;102262.31;5048883;28;20060;-87
2021/08/30 12:12:55;;;;;;;1.42;1.42;;;;;;;24.57;54.04;102265.09;5049069;28;20021;-85
2021/08/30 12:15:25;;;;;;;0.20;0.20;;;;;;;24.57;53.95;102259.66;5048831;28;20017;-85
2021/08/30 12:17:56;;;;;;;0.43;0.43;;;;;;;24.70;54.37;102257.19;5049002;28;20108;-85
2021/08/30 12:20:25;;;;;;;0.10;0.10;;;;;;;25.04;53.75;102252.50;5048887;28;20033;-86
2021/08/30 12:22:54;;;;;;;0.13;0.13;;;;;;;25.43;53.00;102256.50;5048992;28;20388;-86
2021/08/30 12:25:27;;;;;;;0.52;0.52;;;;;;;25.58;51.44;102251.13;5048614;28;20125;-85
2021/08/30 12:27:55;;;;;;;0.75;0.75;;;;;;;25.56;49.96;102255.75;5048758;28;20451;-84
2021/08/30 12:30:26;;;;;;;0.55;0.55;;;;;;;25.62;51.54;102264.41;5048587;28;20087;-84
2021/08/30 12:35:40;;;;;;;0.30;0.30;;;;;;;25.33;51.21;102267.03;5089342;28;20440;-85
2021/08/30 12:38:11;;;;;;;0.20;0.20;;;;;;;25.28;51.88;102265.56;5069276;28;20094;-84
2021/08/30 12:40:40;;;;;;;0.20;0.20;;;;;;;25.22;51.41;102249.63;5069012;28;20527;-86
2021/08/30 12:43:07;;;;;;;1.08;1.08;;;;;;;25.42;51.97;102248.47;5069281;28;20043;-85
2021/08/30 12:45:34;;;;;;;0.20;0.20;;;;;;;25.64;51.69;102246.16;5049310;28;20060;-86
2021/08/30 12:48:01;;;;;;;0.95;0.65;;;;;;;25.99;50.72;102250.38;5049184;28;20025;-86
2021/08/30 12:50:27;;;;;;;3.30;1.15;;;;;;;26.18;50.39;102246.50;5048777;28;20036;-87
2021/08/30 12:52:54;;;;;;;0.25;0.25;;;;;;;26.30;50.08;102253.88;5049148;28;20037;-86
2021/08/30 12:55:21;;;;;;;0.10;0.10;;;;;;;26.42;49.14;102252.22;5048823;28;20025;-86
2021/08/30 12:57:48;;;;;;;0.20;0.20;;;;;;;26.54;48.75;102237.78;5049144;28;20056;-86
2021/08/30 13:00:16;;;;;;;0.25;0.25;;;;;;;26.66;48.54;102240.69;5048676;28;20059;-86
2021/08/30 13:02:44;;;;;;;0.15;0.15;;;;;;;26.70;48.13;102236.78;5048209;28;20041;-85
2021/08/30 13:05:15;;;;;;;0.43;0.43;;;;;;;26.95;48.49;102230.59;5028723;28;20034;-86
2021/08/30 13:07:43;;;;;;;1.65;1.20;;;;;;;27.06;48.26;102233.47;5028637;28;20025;-86
2021/08/30 13:10:11;;;;;;;0.52;0.52;;;;;;;27.25;48.25;102229.47;5027430;28;20033;-84
2021/08/30 13:12:38;;;;;;;3.10;1.45;;;;;;;27.26;46.08;102231.22;5028732;28;20025;-86
2021/08/30 13:15:06;;;;;;;0.20;0.20;;;;;;;27.32;46.72;102228.06;5028526;28;20159;-85
2021/08/30 13:17:34;;;;;;;0.47;0.47;;;;;;;27.51;46.91;102235.00;5028690;28;20392;-86
2021/08/30 13:20:00;;;;;;;1.40;1.02;;;;;;;27.57;46.14;102224.53;5028128;28;20084;-86
2021/08/30 13:22:27;;;;;;;2.08;1.52;;;;;;;27.40;46.29;102228.47;5028627;28;20076;-85
2021/08/30 13:24:53;;;;;;;4.90;0.82;;;;;;;27.23;47.15;102232.31;5028441;28;20034;-86
2021/08/30 13:27:19;;;;;;;0.43;0.43;;;;;;;26.93;46.32;102232.53;5028521;28;20057;-86
2021/08/30 13:29:45;;;;;;;0.10;0.10;;;;;;;26.76;46.66;102231.84;5028358;28;20044;-87
2021/08/30 13:32:15;;;;;;;0.32;0.32;;;;;;;26.47;46.79;102221.03;5028313;28;20018;-86
2021/08/30 13:34:43;;;;;;;0.50;0.50;;;;;;;26.48;47.15;102217.34;5028153;28;20116;-87
2021/08/30 13:37:10;;;;;;;0.20;0.20;;;;;;;26.63;47.40;102222.72;5028277;28;20087;-86
2021/08/30 13:39:37;;;;;;;0.10;0.10;;;;;;;26.74;47.23;102217.50;5028324;28;20029;-87
2021/08/30 13:42:04;;;;;;;0.10;0.10;;;;;;;26.89;47.05;102214.69;5028090;28;20038;-86
2021/08/30 13:44:31;;;;;;;0.20;0.20;;;;;;;26.88;45.97;102213.84;5028354;28;20117;-87
2021/08/30 13:46:57;;;;;;;5.53;0.52;;;;;;;27.06;46.64;102219.84;5014881;28;20108;-87
2021/08/30 13:49:23;;;;;;;0.20;0.20;;;;;;;27.12;45.71;102219.44;5014933;28;20030;-87
2021/08/30 13:51:49;;;;;;;0.88;0.47;;;;;;;26.99;45.21;102223.09;5014945;28;20113;-87
2021/08/30 13:54:15;;;;;;;0.15;0.15;;;;;;;26.82;45.99;102219.69;5014528;28;20549;-87
2021/08/30 13:56:42;;;;;;;0.40;0.40;;;;;;;26.88;46.23;102223.81;5014741;28;20480;-86
2021/08/30 13:59:08;;;;;;;0.20;0.20;;;;;;;26.96;45.64;102221.47;5014781;28;20026;-86
2021/08/30 14:01:34;;;;;;;0.10;0.10;;;;;;;27.23;45.72;102220.56;5014814;28;20041;-86
2021/08/30 14:04:01;;;;;;;0.35;0.35;;;;;;;27.36;45.61;102226.88;5014607;28;20030;-85
2021/08/30 14:06:27;;;;;;;0.10;0.10;;;;;;;27.42;45.21;102229.19;5014574;28;20049;-87
2021/08/30 14:08:53;;;;;;;0.10;0.10;;;;;;;27.37;45.13;102219.59;5014522;28;20030;-87
2021/08/30 14:11:19;;;;;;;0.60;0.60;;;;;;;27.30;44.98;102227.31;5014329;28;20057;-87
2021/08/30 14:13:46;;;;;;;0.22;0.22;;;;;;;27.39;44.22;102226.69;5014733;28;20030;-87
2021/08/30 14:16:12;;;;;;;0.20;0.20;;;;;;;27.58;45.03;102225.41;5014493;28;20388;-87
2021/08/30 14:18:38;;;;;;;0.40;0.40;;;;;;;27.64;44.87;102224.97;5014340;28;20109;-88
2021/08/30 14:21:05;;;;;;;0.63;0.63;;;;;;;27.50;44.46;102223.22;5014171;28;20033;-86
2021/08/30 14:23:32;;;;;;;0.55;0.55;;;;;;;27.51;45.26;102227.69;5014267;28;20034;-86
2021/08/30 14:25:58;;;;;;;0.20;0.20;;;;;;;27.42;45.26;102240.09;5012990;28;20022;-85
2021/08/30 14:28:26;;;;;;;0.30;0.30;;;;;;;27.53;45.86;102230.31;5014197;28;20058;-84
2021/08/30 14:30:52;;;;;;;1.23;1.10;;;;;;;27.72;45.56;102228.00;5013942;28;20469;-85
2021/08/30 14:33:18;;;;;;;0.30;0.30;;;;;;;27.87;43.71;102222.47;5013747;28;20742;-86
2021/08/30 14:35:44;;;;;;;0.30;0.30;;;;;;;27.82;43.71;102221.94;5014117;28;20370;-85
2021/08/30 14:38:10;;;;;;;0.10;0.10;;;;;;;27.75;43.57;102226.91;5013954;28;20018;-85
2021/08/30 14:40:40;;;;;;;0.35;0.35;;;;;;;27.67;43.72;102230.19;5013868;28;20058;-86
2021/08/30 14:43:06;;;;;;;0.68;0.68;;;;;;;27.71;44.07;102236.31;5013772;28;20057;-85
2021/08/30 14:45:33;;;;;;;0.00;0.00;;;;;;;27.65;43.88;102228.56;5013710;28;20489;-85
2021/08/30 14:48:01;;;;;;;1.13;0.88;;;;;;;27.56;43.84;102239.13;5013807;28;20034;-84
2021/08/30 14:50:27;;;;;;;0.30;0.30;;;;;;;27.43;44.26;102230.09;5013715;28;20040;-86
2021/08/30 14:52:53;;;;;;;0.20;0.20;;;;;;;27.29;44.85;102240.06;5013704;28;20117;-86
2021/08/30 14:55:20;;;;;;;0.10;0.10;;;;;;;27.08;44.90;102244.25;5013529;28;20033;-84
2021/08/30 14:57:46;;;;;;;0.30;0.30;;;;;;;26.99;45.36;102244.88;5012806;28;20427;-85
2021/08/30 15:00:12;;;;;;;0.38;0.38;;;;;;;26.86;45.95;102239.41;5012372;28;20143;-87
2021/08/30 15:02:39;;;;;;;0.82;0.80;;;;;;;26.54;46.20;102240.50;5013169;28;20465;-88